createdAt,value
2024-04-11T04:00:33.860Z,100272.91
2024-04-11T04:04:45.993Z,100277.31
2024-04-11T04:08:58.495Z,100286.56
2024-04-11T04:13:12.337Z,100288.53
2024-04-11T04:17:25.465Z,100276.56
2024-04-11T04:21:37.814Z,100285.69
2024-04-11T04:26:20.747Z,100283.56
2024-04-11T04:30:34.652Z,100293.72
2024-04-11T04:34:49.420Z,100298.00
2024-04-11T04:39:07.023Z,100301.66
2024-04-11T04:43:19.868Z,100309.56
2024-04-11T04:47:36.156Z,100309.19
2024-04-11T04:51:48.830Z,100315.53
2024-04-11T04:56:01.109Z,100315.31
2024-04-11T05:00:14.901Z,100320.47
2024-04-11T05:04:30.991Z,100313.94
2024-04-11T05:08:47.514Z,100327.06
2024-04-11T05:13:00.792Z,100340.50
2024-04-11T05:17:14.287Z,100344.03
2024-04-11T05:21:27.734Z,100337.06
2024-04-11T05:25:40.898Z,100337.13
2024-04-11T05:29:53.116Z,100333.50
2024-04-11T05:34:09.946Z,100342.81
2024-04-11T05:38:22.918Z,100362.69
2024-04-11T05:42:36.598Z,100365.63
2024-04-11T05:46:48.971Z,100363.88
2024-04-11T05:51:01.233Z,100351.72
2024-04-11T05:55:14.173Z,100352.66
2024-04-11T05:59:26.645Z,100354.56
2024-04-11T06:03:42.616Z,100341.66
2024-04-11T06:07:56.615Z,100342.28
2024-04-11T06:12:12.000Z,100341.19
2024-04-11T06:16:24.266Z,100341.47
2024-04-11T06:20:36.488Z,100330.31
2024-04-11T06:24:48.644Z,100338.41
2024-04-11T06:29:00.943Z,100345.47
2024-04-11T06:33:14.750Z,100341.63
2024-04-11T06:37:26.962Z,100325.81
2024-04-11T06:41:39.315Z,100313.88
2024-04-11T06:45:51.762Z,100307.66
2024-04-11T06:50:07.774Z,100308.09
2024-04-11T06:54:20.060Z,100310.91
2024-04-11T06:58:33.676Z,100316.09
2024-04-11T07:02:50.322Z,100316.31
2024-04-11T07:07:09.557Z,100314.28
2024-04-11T07:11:28.094Z,100309.59
2024-04-11T07:15:44.276Z,100319.28
2024-04-11T07:19:59.657Z,100327.69
2024-04-11T07:24:15.400Z,100338.16
2024-04-11T07:28:27.953Z,100341.09
2024-04-11T07:32:41.579Z,100348.53
2024-04-11T07:36:53.938Z,100346.91
2024-04-11T07:41:18.516Z,100347.09
2024-04-11T07:45:32.176Z,100342.03
2024-04-11T07:49:48.301Z,100331.03
2024-04-11T07:54:04.662Z,100334.97
2024-04-11T07:58:20.450Z,100328.44
2024-04-11T08:02:34.998Z,100334.13
2024-04-11T08:06:47.278Z,100326.94
2024-04-11T08:11:04.372Z,100329.84
2024-04-11T08:15:16.955Z,100336.06
2024-04-11T08:19:33.428Z,100342.13
2024-04-11T08:23:47.951Z,100361.94
2024-04-11T08:28:02.059Z,100360.59
2024-04-11T08:32:15.006Z,100370.19
2024-04-11T08:36:31.050Z,100366.50
2024-04-11T08:40:45.663Z,100379.81
2024-04-11T08:44:59.270Z,100381.97
2024-04-11T08:49:12.261Z,100379.63
2024-04-11T08:53:26.140Z,100371.94
2024-04-11T08:57:38.753Z,100379.00
2024-04-11T09:01:50.943Z,100380.31
2024-04-11T09:06:03.711Z,100377.69
2024-04-11T09:10:20.403Z,100383.50
2024-04-11T09:14:33.228Z,100376.41
2024-04-11T09:18:48.253Z,100391.88
2024-04-11T09:23:05.104Z,100394.78
2024-04-11T09:27:18.357Z,100396.09
2024-04-11T09:31:31.392Z,100400.13
2024-04-11T09:35:48.219Z,100395.28
2024-04-11T09:40:12.826Z,100394.97
2024-04-11T09:44:32.814Z,100392.84
2024-04-11T09:48:50.179Z,100388.72
2024-04-11T09:53:02.913Z,100390.25
2024-04-11T09:57:16.230Z,100394.25
2024-04-11T10:01:31.676Z,100381.31
2024-04-11T10:05:48.108Z,100372.78
2024-04-11T10:10:07.755Z,100376.69
2024-04-11T10:14:24.186Z,100386.63
2024-04-11T10:18:47.752Z,100392.44
2024-04-11T10:23:00.843Z,100396.91
2024-04-11T10:27:19.563Z,100404.63
2024-04-11T10:31:34.550Z,100395.44
2024-04-11T10:35:48.099Z,100389.56
2024-04-11T10:40:01.941Z,100391.72
2024-04-11T10:44:14.195Z,100393.63
2024-04-11T10:48:26.907Z,100394.53
2024-04-11T10:52:47.059Z,100395.34
2024-04-11T10:56:59.999Z,100392.69
2024-04-11T11:01:15.641Z,100390.28
2024-04-11T11:05:28.705Z,100394.09
2024-04-11T11:09:47.547Z,100382.59
2024-04-11T11:14:01.675Z,100389.31
2024-04-11T11:18:14.457Z,100386.53
2024-04-11T11:22:34.834Z,100381.75
2024-04-11T11:26:48.211Z,100378.97
2024-04-11T11:31:01.950Z,100373.19
2024-04-11T11:35:14.180Z,100382.22
2024-04-11T11:39:26.732Z,100381.44
2024-04-11T11:43:45.125Z,100378.25
2024-04-11T11:47:59.350Z,100372.03
2024-04-11T11:52:15.394Z,100366.94
2024-04-11T11:56:33.814Z,100357.88
2024-04-11T12:01:00.287Z,100363.16
2024-04-11T12:05:16.017Z,100359.50
2024-04-11T12:09:33.138Z,100362.00
2024-04-11T12:13:52.652Z,100344.00
2024-04-11T12:18:13.260Z,100332.00
2024-04-11T12:22:27.948Z,100333.97
2024-04-11T12:26:41.650Z,100336.13
2024-04-11T12:31:06.969Z,100338.41
2024-04-11T12:35:30.983Z,100340.22
2024-04-11T12:39:55.127Z,100332.31
2024-04-11T12:44:25.091Z,100336.78
2024-04-11T12:48:39.729Z,100324.91
2024-04-11T12:52:51.996Z,100314.94
2024-04-11T12:57:08.457Z,100308.31
2024-04-11T13:01:21.061Z,100305.97
2024-04-11T13:05:42.201Z,100314.56
2024-04-11T13:09:59.702Z,100314.13
2024-04-11T13:14:12.148Z,100304.34
2024-04-11T13:18:30.155Z,100306.09
2024-04-11T13:22:50.215Z,100309.47
2024-04-11T13:27:02.903Z,100307.09
2024-04-11T13:31:21.394Z,100294.88
2024-04-11T13:35:40.485Z,100304.09
2024-04-11T13:40:11.791Z,100281.88
2024-04-11T13:44:27.856Z,100284.50
2024-04-11T13:48:51.553Z,100281.50
2024-04-11T13:53:06.433Z,100279.06
2024-04-11T13:57:24.679Z,100273.31
2024-04-11T14:01:52.551Z,100276.44
2024-04-11T14:06:28.255Z,100284.16
2024-04-11T14:10:40.530Z,100280.50
2024-04-11T14:14:53.291Z,100277.91
2024-04-11T14:19:08.942Z,100273.44
2024-04-11T14:23:44.042Z,100275.44
2024-04-11T14:28:01.289Z,100276.09
2024-04-11T14:32:25.293Z,100277.28
2024-04-11T14:36:55.230Z,100254.72
2024-04-11T14:41:07.542Z,100253.94
2024-04-11T14:45:23.758Z,100250.53
2024-04-11T14:49:36.153Z,100247.44
2024-04-11T14:53:48.686Z,100256.50
2024-04-11T14:58:00.990Z,100255.00
2024-04-11T15:02:19.269Z,100247.25
2024-04-11T15:06:35.298Z,100245.56
2024-04-11T15:10:51.387Z,100242.56
2024-04-11T15:15:03.881Z,100241.69
2024-04-11T15:19:16.728Z,100229.84
2024-04-11T15:23:29.659Z,100230.41
2024-04-11T15:27:51.388Z,100225.75
2024-04-11T15:32:07.058Z,100223.09
2024-04-11T15:36:35.430Z,100230.09
2024-04-11T15:40:53.206Z,100220.81
2024-04-11T15:45:06.788Z,100227.59
2024-04-11T15:49:19.993Z,100223.50
2024-04-11T15:53:37.536Z,100220.28
2024-04-11T15:57:54.947Z,100225.34
2024-04-11T16:02:10.781Z,100230.63
2024-04-11T16:06:27.127Z,100223.03
2024-04-11T16:10:40.199Z,100231.91
2024-04-11T16:14:57.859Z,100230.03
2024-04-11T16:19:14.529Z,100231.84
2024-04-11T16:23:27.912Z,100226.84
2024-04-11T16:27:40.198Z,100217.75
2024-04-11T16:31:57.535Z,100221.91
2024-04-11T16:36:12.514Z,100217.59
2024-04-11T16:40:25.403Z,100227.38
2024-04-11T16:44:38.065Z,100229.50
2024-04-11T16:48:54.995Z,100233.34
2024-04-11T16:53:10.555Z,100223.44
2024-04-11T16:57:26.789Z,100220.84
2024-04-11T17:01:42.260Z,100212.25
2024-04-11T17:05:59.879Z,100216.75
2024-04-11T17:10:18.389Z,100222.50
2024-04-11T17:14:34.618Z,100224.00
2024-04-11T17:18:58.692Z,100225.56
2024-04-11T17:23:21.244Z,100222.63
2024-04-11T17:27:35.877Z,100228.59
2024-04-11T17:31:56.340Z,100229.94
2024-04-11T17:36:36.647Z,100232.31
2024-04-11T17:40:48.822Z,100232.53
2024-04-11T17:45:04.420Z,100226.44
2024-04-11T17:49:28.821Z,100225.00
2024-04-11T17:53:41.067Z,100232.38
2024-04-11T17:57:57.048Z,100228.28
2024-04-11T18:02:13.116Z,100227.13
2024-04-11T18:06:28.489Z,100226.59
2024-04-11T18:10:51.292Z,100229.53
2024-04-11T18:15:10.946Z,100228.00
2024-04-11T18:19:30.772Z,100231.47
2024-04-11T18:23:43.827Z,100243.19
2024-04-11T18:27:57.724Z,100240.16
2024-04-11T18:32:12.288Z,100253.16
2024-04-11T18:36:27.634Z,100250.38
2024-04-11T18:40:44.107Z,100259.47
2024-04-11T18:45:01.405Z,100267.28
2024-04-11T18:49:19.315Z,100262.44
2024-04-11T18:53:32.662Z,100269.63
2024-04-11T18:57:50.399Z,100274.25
2024-04-11T19:02:03.989Z,100276.00
2024-04-11T19:06:18.959Z,100283.09
2024-04-11T19:10:31.164Z,100288.50
2024-04-11T19:14:43.698Z,100282.19
2024-04-11T19:18:57.954Z,100296.44
2024-04-11T19:23:12.100Z,100299.13
2024-04-11T19:27:29.761Z,100295.41
2024-04-11T19:31:48.272Z,100278.19
2024-04-11T19:36:02.373Z,100279.56
2024-04-11T19:40:19.907Z,100287.28
2024-04-11T19:44:32.285Z,100283.72
2024-04-11T19:48:50.043Z,100282.31
2024-04-11T19:53:04.021Z,100291.00
2024-04-11T19:57:16.989Z,100280.41
2024-04-11T20:02:00.387Z,100279.97
2024-04-11T20:06:19.502Z,100290.81
2024-04-11T20:10:38.402Z,100297.84
2024-04-11T20:14:51.318Z,100306.63
2024-04-11T20:19:04.985Z,100313.94
2024-04-11T20:23:20.424Z,100316.38
2024-04-11T20:27:35.906Z,100315.09
2024-04-11T20:31:53.560Z,100313.28
2024-04-11T20:36:11.058Z,100322.16
2024-04-11T20:40:26.915Z,100317.09
2024-04-11T20:44:42.355Z,100327.44
2024-04-11T20:49:06.708Z,100320.28
2024-04-11T20:53:38.129Z,100319.16
2024-04-11T20:58:09.036Z,100321.97
2024-04-11T21:02:39.864Z,100318.75
2024-04-11T21:07:10.762Z,100311.56
2024-04-11T21:11:42.451Z,100312.34
2024-04-11T21:16:13.320Z,100314.75
2024-04-11T21:20:44.205Z,100313.84
2024-04-11T21:25:15.097Z,100317.69
2024-04-11T21:29:45.944Z,100322.13
